createdAt,value
2023-02-17T00:03:21.751Z,2.95
2023-02-17T00:08:23.055Z,3.20
2023-02-17T00:13:24.449Z,2.70
2023-02-17T00:18:25.798Z,2.63
2023-02-17T00:23:27.074Z,2.80
2023-02-17T00:28:28.334Z,2.95
2023-02-17T00:33:29.619Z,2.63
2023-02-17T00:38:30.868Z,2.42
2023-02-17T00:43:32.157Z,2.97
2023-02-17T00:48:33.524Z,2.77
2023-02-17T00:53:34.876Z,2.75
2023-02-17T00:58:36.256Z,2.40
2023-02-17T01:03:37.696Z,2.70
2023-02-17T01:08:38.943Z,2.83
2023-02-17T01:13:40.219Z,2.93
2023-02-17T01:18:41.512Z,3.05
2023-02-17T01:23:42.812Z,2.60
2023-02-17T01:28:44.318Z,3.13
2023-02-17T01:33:45.736Z,2.60
2023-02-17T01:38:47.146Z,3.07
2023-02-17T01:44:11.962Z,3.08
2023-02-17T01:49:22.472Z,2.63
2023-02-17T01:54:40.231Z,2.75
2023-02-17T01:59:41.891Z,3.20
2023-02-17T02:04:44.741Z,2.63
2023-02-17T02:09:48.594Z,3.25
2023-02-17T02:14:50.590Z,3.10
2023-02-17T02:20:10.391Z,3.45
2023-02-17T02:25:17.811Z,2.78
2023-02-17T02:30:25.215Z,2.80
2023-02-17T02:35:45.503Z,2.67
2023-02-17T02:40:49.901Z,2.80
2023-02-17T02:45:51.368Z,3.20
2023-02-17T02:50:55.518Z,3.20
2023-02-17T02:55:56.795Z,2.50
2023-02-17T03:01:02.735Z,2.72
2023-02-17T03:06:09.159Z,2.80
2023-02-17T03:11:10.854Z,3.20
2023-02-17T03:16:14.473Z,2.72
2023-02-17T03:21:17.124Z,2.83
2023-02-17T03:26:18.369Z,2.70
2023-02-17T03:31:19.940Z,2.57
2023-02-17T03:36:21.274Z,2.38
2023-02-17T03:41:23.080Z,2.15
2023-02-17T03:46:24.340Z,2.07
2023-02-17T03:51:25.788Z,2.38
2023-02-17T03:56:27.229Z,2.20
2023-02-17T04:01:28.622Z,2.38
2023-02-17T04:06:30.010Z,2.40
2023-02-17T04:11:31.278Z,2.50
2023-02-17T04:16:32.560Z,2.90
2023-02-17T04:21:34.077Z,2.67
2023-02-17T04:26:35.395Z,2.33
2023-02-17T04:31:36.730Z,2.60
2023-02-17T04:36:38.141Z,2.47
2023-02-17T04:41:39.559Z,2.40
2023-02-17T04:46:40.886Z,2.07
2023-02-17T04:51:42.208Z,2.53
2023-02-17T04:56:43.596Z,2.35
2023-02-17T05:01:44.878Z,2.80
2023-02-17T05:06:46.211Z,3.58
2023-02-17T05:11:47.477Z,1.77
2023-02-17T05:16:48.991Z,2.10
2023-02-17T05:21:51.348Z,1.60
2023-02-17T05:26:52.612Z,1.70
2023-02-17T05:31:53.962Z,1.92
2023-02-17T05:36:55.207Z,2.03
2023-02-17T05:41:56.791Z,1.83
2023-02-17T05:46:58.119Z,2.00
2023-02-17T05:51:59.943Z,2.20
2023-02-17T05:57:01.259Z,2.60
2023-02-17T06:02:02.574Z,2.70
2023-02-17T06:07:03.872Z,3.60
2023-02-17T06:12:05.355Z,2.25
2023-02-17T06:17:06.707Z,2.50
2023-02-17T06:22:08.006Z,2.50
2023-02-17T06:27:09.316Z,2.10
2023-02-17T06:32:10.709Z,2.40
2023-02-17T06:37:12.125Z,2.28
2023-02-17T06:42:13.399Z,2.70
2023-02-17T06:47:14.674Z,2.38
2023-02-17T06:52:16.023Z,3.73
2023-02-17T06:57:17.568Z,3.60
2023-02-17T07:02:18.926Z,2.47
2023-02-17T07:07:20.260Z,2.37
2023-02-17T07:12:21.557Z,2.20
2023-02-17T07:17:22.862Z,1.93
2023-02-17T07:22:26.157Z,2.25
2023-02-17T07:27:27.504Z,2.25
2023-02-17T07:32:28.802Z,1.90
2023-02-17T07:37:30.143Z,2.40
2023-02-17T07:42:34.122Z,2.17
2023-02-17T07:47:35.374Z,2.25
2023-02-17T07:52:36.677Z,3.42
2023-02-17T07:57:37.974Z,3.13
2023-02-17T08:02:39.447Z,4.65
2023-02-17T08:07:40.755Z,2.60
2023-02-17T08:12:57.371Z,3.55
2023-02-17T08:18:00.711Z,2.83
2023-02-17T08:23:03.552Z,2.07
2023-02-17T08:28:05.719Z,3.78
2023-02-17T08:33:07.013Z,2.10
2023-02-17T08:38:08.317Z,2.20
2023-02-17T08:43:09.828Z,2.50
2023-02-17T08:48:11.138Z,1.80
2023-02-17T08:53:12.456Z,1.88
2023-02-17T08:58:13.767Z,1.80
2023-02-17T09:03:15.108Z,2.75
2023-02-17T09:08:16.468Z,1.80
2023-02-17T09:13:18.295Z,1.80
2023-02-17T09:18:23.076Z,1.50
2023-02-17T09:23:24.517Z,1.60
2023-02-17T09:28:28.859Z,1.70
2023-02-17T09:33:30.182Z,2.47
2023-02-17T09:38:31.506Z,1.40
2023-02-17T09:43:33.551Z,1.40
2023-02-17T09:48:35.865Z,1.50
2023-02-17T09:53:40.131Z,1.58
2023-02-17T09:58:49.554Z,1.60
2023-02-17T10:03:59.768Z,1.40
2023-02-17T10:09:04.108Z,1.58
2023-02-17T10:14:09.931Z,1.50
2023-02-17T10:19:17.368Z,1.75
2023-02-17T10:24:18.715Z,1.20
2023-02-17T10:29:26.299Z,1.10
2023-02-17T10:34:47.871Z,1.77
2023-02-17T10:39:50.162Z,1.37
2023-02-17T10:44:52.330Z,1.45
2023-02-17T10:49:54.546Z,1.63
2023-02-17T10:55:20.883Z,1.00
2023-02-17T11:00:24.213Z,2.20
2023-02-17T11:05:27.244Z,1.47
2023-02-17T11:10:30.410Z,1.70
2023-02-17T11:15:34.788Z,1.25
2023-02-17T11:20:36.521Z,1.20
2023-02-17T11:25:37.966Z,1.40
2023-02-17T11:30:40.245Z,1.50
2023-02-17T11:35:46.100Z,1.90
2023-02-17T11:41:00.626Z,1.90
2023-02-17T11:46:10.881Z,2.30
2023-02-17T11:51:22.541Z,1.10
2023-02-17T11:56:28.118Z,1.13
2023-02-17T12:01:29.378Z,1.60
2023-02-17T12:06:40.471Z,1.30
2023-02-17T12:11:49.549Z,1.92
2023-02-17T12:16:57.105Z,1.80
2023-02-17T12:22:07.735Z,3.65
2023-02-17T12:27:29.070Z,1.60
2023-02-17T12:32:46.005Z,1.73
2023-02-17T12:37:53.318Z,1.85
2023-02-17T12:43:00.199Z,1.90
2023-02-17T12:48:03.985Z,1.80
2023-02-17T12:53:10.634Z,1.37
2023-02-17T12:58:13.494Z,2.15
2023-02-17T13:03:14.998Z,1.77
2023-02-17T13:08:18.719Z,1.90
2023-02-17T13:13:27.652Z,2.88
2023-02-17T13:18:34.161Z,2.00
2023-02-17T13:23:39.847Z,2.00
2023-02-17T13:28:41.736Z,2.35
2023-02-17T13:33:48.313Z,2.00
2023-02-17T13:38:55.916Z,1.67
2023-02-17T13:43:57.241Z,1.77
2023-02-17T13:49:03.470Z,1.97
2023-02-17T13:54:05.759Z,1.80
2023-02-17T13:59:08.645Z,1.65
2023-02-17T14:04:23.792Z,2.30
2023-02-17T14:09:26.711Z,2.00
2023-02-17T14:14:32.335Z,2.70
2023-02-17T14:19:44.497Z,2.20
2023-02-17T14:24:45.792Z,2.10
2023-02-17T14:29:47.988Z,2.00
2023-02-17T14:34:49.244Z,2.13
2023-02-17T14:39:50.636Z,2.38
2023-02-17T14:44:51.922Z,3.23
2023-02-17T14:49:53.233Z,2.40
2023-02-17T14:54:54.558Z,2.35
2023-02-17T14:59:57.631Z,2.67
2023-02-17T15:04:59.007Z,2.60
2023-02-17T15:10:00.350Z,2.63
2023-02-17T15:15:01.658Z,2.70
2023-02-17T15:20:05.443Z,3.22
2023-02-17T15:25:22.137Z,2.83
2023-02-17T15:30:23.588Z,2.42
2023-02-17T15:35:26.704Z,2.87
2023-02-17T15:40:28.237Z,2.78
2023-02-17T15:45:29.716Z,2.90
2023-02-17T15:50:30.969Z,2.30
2023-02-17T15:55:33.052Z,3.00
2023-02-17T16:00:35.970Z,3.10
2023-02-17T16:05:37.279Z,2.88
2023-02-17T16:10:40.422Z,2.90
2023-02-17T16:15:42.094Z,3.07
2023-02-17T16:20:43.354Z,3.20
2023-02-17T16:25:45.211Z,3.00
2023-02-17T16:30:49.279Z,2.90
2023-02-17T16:35:50.778Z,3.30
2023-02-17T16:40:52.679Z,3.53
2023-02-17T16:45:55.513Z,2.88
2023-02-17T16:50:57.003Z,3.40
2023-02-17T16:55:58.295Z,3.70
2023-02-17T17:00:59.596Z,2.88
2023-02-17T17:06:04.731Z,2.97
2023-02-17T17:11:06.531Z,3.28
2023-02-17T17:16:15.629Z,3.03
2023-02-17T17:21:20.335Z,2.50
2023-02-17T17:26:21.602Z,2.70
2023-02-17T17:31:26.282Z,1.67
2023-02-17T17:36:31.313Z,1.92
2023-02-17T17:41:32.966Z,1.55
2023-02-17T17:46:34.790Z,1.90
2023-02-17T17:51:36.727Z,1.45
2023-02-17T17:56:39.631Z,1.73
2023-02-17T18:01:41.465Z,1.80
2023-02-17T18:06:45.625Z,1.80
2023-02-17T18:11:47.850Z,1.60
2023-02-17T18:16:49.147Z,1.77
2023-02-17T18:21:50.393Z,1.60
2023-02-17T18:26:52.220Z,2.60
2023-02-17T18:31:53.634Z,1.70
2023-02-17T18:36:54.974Z,1.50
2023-02-17T18:41:56.218Z,2.03
2023-02-17T18:47:00.173Z,1.80
2023-02-17T18:52:01.459Z,1.63
2023-02-17T18:57:05.447Z,1.80
2023-02-17T19:02:07.488Z,1.80
2023-02-17T19:07:08.781Z,1.60
2023-02-17T19:12:13.383Z,1.40
2023-02-17T19:17:18.163Z,2.00
2023-02-17T19:22:19.473Z,1.58
2023-02-17T19:27:20.876Z,2.20
2023-02-17T19:32:22.180Z,2.30
2023-02-17T19:37:23.451Z,1.87
2023-02-17T19:42:24.740Z,1.90
2023-02-17T19:47:26.082Z,2.30
2023-02-17T19:52:27.508Z,2.00
2023-02-17T19:57:29.696Z,1.90
2023-02-17T20:02:31.662Z,2.23
2023-02-17T20:07:33.214Z,2.25
2023-02-17T20:12:34.485Z,2.45
2023-02-17T20:17:35.763Z,2.20
2023-02-17T20:22:37.056Z,2.40
2023-02-17T20:27:38.346Z,2.27
2023-02-17T20:32:39.656Z,2.10
2023-02-17T20:37:41.024Z,2.30
2023-02-17T20:42:42.313Z,2.20
2023-02-17T20:47:43.692Z,2.00
2023-02-17T20:52:45.301Z,1.60
2023-02-17T20:57:50.858Z,1.75
2023-02-17T21:02:52.374Z,1.77
2023-02-17T21:07:55.523Z,2.10
2023-02-17T21:12:56.882Z,1.80
2023-02-17T21:17:58.175Z,1.63
2023-02-17T21:23:00.892Z,1.70
2023-02-17T21:28:02.143Z,1.90
2023-02-17T21:33:03.585Z,1.50
2023-02-17T21:38:04.853Z,1.63
2023-02-17T21:43:24.756Z,1.47
2023-02-17T21:48:26.122Z,1.38
2023-02-17T21:53:27.402Z,1.30
2023-02-17T21:58:28.930Z,1.43
2023-02-17T22:03:30.242Z,1.30
2023-02-17T22:08:31.537Z,1.17
2023-02-17T22:13:32.841Z,1.20
2023-02-17T22:18:34.120Z,1.10
2023-02-17T22:23:35.748Z,1.10
2023-02-17T22:28:37.212Z,1.17
2023-02-17T22:33:38.507Z,1.37
2023-02-17T22:38:39.992Z,1.00
2023-02-17T22:43:41.943Z,1.17
2023-02-17T22:48:44.454Z,1.17
2023-02-17T22:53:45.885Z,1.00
2023-02-17T22:58:47.582Z,1.00
2023-02-17T23:03:53.921Z,1.00
2023-02-17T23:08:56.082Z,1.10
2023-02-17T23:13:57.353Z,1.00
2023-02-17T23:18:58.642Z,1.00
2023-02-17T23:23:59.903Z,0.90
2023-02-17T23:29:01.342Z,1.10
2023-02-17T23:34:02.646Z,0.98
2023-02-17T23:39:03.958Z,1.00
2023-02-17T23:44:06.753Z,1.50
2023-02-17T23:49:08.351Z,1.20
2023-02-17T23:54:09.598Z,1.00
2023-02-17T23:59:11.560Z,1.10
